Time;durP1;ratioP1;P1;durP2;ratioP2;P2;SDS_P1;SDS_P2;PMS_P1;PMS_P2;Temp;Humidity;BMP_temperature;BMP_pressure;BME280_temperature;BME280_humidity;BME280_pressure;Samples;Min_cycle;Max_cycle;Signal;HPM_P1;HPM_P2
2022/02/13 00:01:45;;;;;;;14.07;6.18;;;8.70;82.00;;;;;;4998890;28;20022;-72
2022/02/13 00:04:13;;;;;;;15.20;6.20;;;8.80;82.00;;;;;;5002238;28;20041;-72
2022/02/13 00:06:38;;;;;;;12.65;6.18;;;8.70;82.20;;;;;;5012132;28;20523;-72
2022/02/13 00:09:04;;;;;;;12.13;6.05;;;8.80;82.30;;;;;;5010047;28;20038;-72
2022/02/13 00:11:30;;;;;;;11.00;6.20;;;8.80;82.30;;;;;;5005970;28;20062;-72
2022/02/13 00:13:56;;;;;;;11.80;5.90;;;8.80;82.30;;;;;;5003704;28;20072;-72
2022/02/13 00:16:22;;;;;;;15.00;6.28;;;8.80;82.60;;;;;;5011401;28;20033;-72
2022/02/13 00:18:48;;;;;;;11.48;6.65;;;8.80;82.40;;;;;;5008854;28;20515;-72
2022/02/13 00:21:13;;;;;;;11.13;5.95;;;8.80;82.80;;;;;;5011218;28;20107;-72
2022/02/13 00:23:39;;;;;;;16.02;6.30;;;8.80;82.50;;;;;;5006941;28;20014;-72
2022/02/13 00:26:05;;;;;;;12.85;6.00;;;8.80;82.60;;;;;;5006501;28;20031;-72
2022/02/13 00:28:32;;;;;;;11.00;6.30;;;8.80;82.80;;;;;;5008237;28;20021;-72
2022/02/13 00:30:58;;;;;;;12.40;6.80;;;8.80;82.70;;;;;;5009529;28;20088;-72
2022/02/13 00:33:24;;;;;;;11.52;5.93;;;8.80;82.80;;;;;;5011297;28;20026;-72
2022/02/13 00:35:49;;;;;;;10.63;5.78;;;8.80;83.00;;;;;;5010688;28;20061;-72
2022/02/13 00:38:16;;;;;;;13.93;6.32;;;8.70;83.20;;;;;;5005872;28;20030;-72
2022/02/13 00:40:42;;;;;;;13.38;5.70;;;8.80;83.00;;;;;;5008612;28;20693;-72
2022/02/13 00:43:08;;;;;;;11.75;5.68;;;8.70;82.70;;;;;;5009253;28;20030;-72
2022/02/13 00:45:35;;;;;;;12.90;6.35;;;8.70;83.50;;;;;;5011235;28;20034;-72
2022/02/13 00:48:01;;;;;;;12.18;6.40;;;8.70;83.90;;;;;;5009861;28;20025;-72
2022/02/13 00:50:27;;;;;;;12.25;5.97;;;8.70;83.70;;;;;;5010395;28;20054;-72
2022/02/13 00:52:52;;;;;;;12.23;5.63;;;8.70;83.80;;;;;;5010469;28;20022;-72
2022/02/13 00:55:18;;;;;;;10.95;6.22;;;8.70;83.40;;;;;;5010201;28;20108;-72
2022/02/13 00:57:44;;;;;;;13.95;6.18;;;8.60;84.10;;;;;;5011168;28;20021;-72
2022/02/13 01:00:10;;;;;;;11.00;5.95;;;8.70;84.00;;;;;;5007848;28;20033;-72
2022/02/13 01:02:36;;;;;;;11.43;6.13;;;8.70;84.70;;;;;;5010126;28;20030;-72
2022/02/13 01:05:02;;;;;;;11.63;6.32;;;8.70;84.90;;;;;;5009899;28;20112;-72
2022/02/13 01:07:27;;;;;;;14.45;6.28;;;8.60;85.00;;;;;;5009123;28;20112;-72
2022/02/13 01:09:53;;;;;;;14.70;6.50;;;8.60;84.70;;;;;;5006808;28;20088;-72
2022/02/13 01:12:19;;;;;;;12.18;6.35;;;8.60;84.90;;;;;;5010437;28;20388;-72
2022/02/13 01:14:44;;;;;;;12.15;6.97;;;8.60;85.30;;;;;;5009947;28;20018;-72
2022/02/13 01:17:10;;;;;;;14.13;6.57;;;8.60;86.30;;;;;;5005803;28;20030;-72
2022/02/13 01:19:36;;;;;;;10.80;6.18;;;8.60;85.50;;;;;;5009703;28;20721;-73
2022/02/13 01:22:04;;;;;;;12.07;7.00;;;8.60;85.30;;;;;;5010172;28;20113;-72
2022/02/13 01:24:31;;;;;;;14.20;7.03;;;8.60;85.10;;;;;;5009470;28;20025;-72
2022/02/13 01:26:56;;;;;;;13.20;7.30;;;8.50;85.10;;;;;;5009577;28;20029;-72
2022/02/13 01:29:22;;;;;;;15.40;7.28;;;8.50;85.40;;;;;;5009306;28;20033;-72
2022/02/13 01:31:49;;;;;;;12.55;7.57;;;8.50;84.90;;;;;;5006547;28;20046;-72
2022/02/13 01:34:18;;;;;;;12.10;7.25;;;8.50;85.70;;;;;;5009135;28;20041;-72
2022/02/13 01:36:48;;;;;;;15.40;7.40;;;8.50;85.10;;;;;;5010204;28;20045;-72
2022/02/13 01:39:14;;;;;;;18.30;7.88;;;8.50;86.10;;;;;;5005278;28;20026;-72
2022/02/13 01:41:40;;;;;;;16.92;7.70;;;8.50;86.40;;;;;;5009290;28;20523;-72
2022/02/13 01:44:20;;;;;;;14.77;7.90;;;8.50;86.70;;;;;;5009464;28;20037;-72
2022/02/13 01:46:46;;;;;;;16.70;7.90;;;8.50;86.40;;;;;;5009217;28;20576;-72
2022/02/13 01:49:12;;;;;;;14.90;8.20;;;8.40;86.50;;;;;;5009151;28;20117;-72
2022/02/13 01:51:38;;;;;;;16.08;8.70;;;8.40;86.80;;;;;;5010450;28;20576;-72
2022/02/13 01:54:04;;;;;;;19.42;9.07;;;8.40;87.10;;;;;;5009764;28;20065;-72
2022/02/13 01:56:29;;;;;;;16.73;9.15;;;8.40;87.40;;;;;;5009329;28;20052;-72
2022/02/13 01:58:55;;;;;;;16.85;9.02;;;8.40;86.60;;;;;;5008959;28;20026;-72
2022/02/13 02:01:21;;;;;;;15.18;9.07;;;8.30;87.40;;;;;;5007481;28;20041;-72
2022/02/13 02:03:47;;;;;;;17.25;8.77;;;8.40;87.60;;;;;;5010167;28;20026;-72
2022/02/13 02:06:12;;;;;;;15.68;9.00;;;8.40;87.00;;;;;;5006169;28;20034;-72
2022/02/13 02:08:38;;;;;;;15.65;8.48;;;8.30;87.00;;;;;;5008929;28;20025;-72
2022/02/13 02:11:04;;;;;;;15.88;8.40;;;8.30;87.00;;;;;;5008394;28;20053;-72
2022/02/13 02:13:29;;;;;;;13.60;8.55;;;8.30;86.90;;;;;;5009147;28;20056;-72
2022/02/13 02:15:55;;;;;;;11.63;7.70;;;8.30;86.70;;;;;;5009604;28;20026;-72
2022/02/13 02:18:21;;;;;;;14.07;8.70;;;8.20;86.50;;;;;;4992287;28;20061;-72
2022/02/13 02:20:48;;;;;;;14.68;8.65;;;8.30;86.60;;;;;;5008830;28;20481;-72
2022/02/13 02:23:14;;;;;;;14.50;9.10;;;8.20;86.40;;;;;;5009112;28;20034;-72
2022/02/13 02:25:40;;;;;;;14.73;8.55;;;8.20;86.30;;;;;;5008957;28;20103;-72
2022/02/13 02:28:05;;;;;;;15.15;8.05;;;8.20;86.50;;;;;;5008946;28;20033;-72
2022/02/13 02:30:31;;;;;;;15.13;8.50;;;8.20;86.30;;;;;;5008190;28;20072;-72
2022/02/13 02:32:57;;;;;;;13.23;8.27;;;8.10;86.40;;;;;;5006961;28;20030;-72
2022/02/13 02:35:23;;;;;;;13.77;8.18;;;8.10;86.00;;;;;;5005095;28;20034;-72
2022/02/13 02:37:49;;;;;;;14.35;8.05;;;8.10;85.90;;;;;;5012110;28;20029;-72
2022/02/13 02:40:17;;;;;;;17.42;8.20;;;8.10;86.00;;;;;;5012615;28;20497;-72
2022/02/13 02:42:43;;;;;;;14.73;8.07;;;8.10;86.00;;;;;;5009202;28;20018;-71
2022/02/13 02:45:13;;;;;;;13.38;7.65;;;8.10;85.50;;;;;;5012494;28;20107;-72
2022/02/13 02:47:40;;;;;;;12.10;7.90;;;8.10;84.60;;;;;;5007963;28;20038;-72
2022/02/13 02:50:07;;;;;;;12.75;7.43;;;8.10;84.20;;;;;;5012646;28;20333;-72
2022/02/13 02:52:33;;;;;;;12.45;7.20;;;8.00;84.30;;;;;;5012769;28;20413;-72
2022/02/13 02:54:59;;;;;;;13.73;7.53;;;8.00;83.80;;;;;;5013156;28;20033;-72
2022/02/13 02:57:26;;;;;;;15.43;7.35;;;7.90;84.00;;;;;;5008561;28;20104;-72
2022/02/13 02:59:52;;;;;;;15.00;7.10;;;7.90;84.20;;;;;;5008070;28;20527;-72
2022/02/13 03:02:17;;;;;;;12.15;7.13;;;7.90;84.10;;;;;;5008294;28;20076;-72
2022/02/13 03:04:43;;;;;;;13.93;7.30;;;7.90;84.50;;;;;;5012261;28;20033;-72
2022/02/13 03:07:09;;;;;;;13.80;6.70;;;7.80;84.80;;;;;;5012419;28;20115;-72
2022/02/13 03:09:35;;;;;;;12.73;6.70;;;7.80;84.30;;;;;;5013472;28;20428;-72
2022/02/13 03:12:01;;;;;;;10.38;6.15;;;7.80;84.80;;;;;;5012448;28;20027;-72
2022/02/13 03:14:27;;;;;;;12.77;6.68;;;7.80;85.30;;;;;;5012444;28;20041;-72
2022/02/13 03:16:53;;;;;;;13.60;6.72;;;7.80;85.30;;;;;;5012163;28;20041;-72
2022/02/13 03:19:19;;;;;;;14.05;6.50;;;7.80;86.20;;;;;;5011839;28;20026;-72
2022/02/13 03:21:44;;;;;;;11.65;6.63;;;7.70;86.70;;;;;;5008944;28;20038;-72
2022/02/13 03:24:10;;;;;;;12.85;7.10;;;7.70;86.70;;;;;;5012030;28;20026;-72
2022/02/13 03:26:36;;;;;;;12.63;6.55;;;7.70;87.30;;;;;;5010421;28;20041;-72
2022/02/13 03:29:02;;;;;;;12.57;6.72;;;7.70;87.90;;;;;;5007965;28;20132;-72
2022/02/13 03:31:28;;;;;;;11.98;6.72;;;7.60;88.20;;;;;;5011638;28;20022;-72
2022/02/13 03:33:54;;;;;;;12.82;6.68;;;7.60;88.50;;;;;;5008903;28;20040;-72
2022/02/13 03:36:20;;;;;;;12.35;6.70;;;7.60;89.20;;;;;;5012948;28;20040;-72
2022/02/13 03:38:46;;;;;;;12.35;6.70;;;7.50;90.00;;;;;;5012214;28;20029;-72
2022/02/13 03:41:11;;;;;;;13.68;6.80;;;7.50;90.10;;;;;;5011688;28;20500;-72
2022/02/13 03:43:38;;;;;;;11.45;5.85;;;7.50;90.30;;;;;;5011915;28;20022;-72
2022/02/13 03:46:03;;;;;;;11.77;6.78;;;7.50;90.30;;;;;;5011761;28;20034;-72
2022/02/13 03:48:30;;;;;;;12.43;6.15;;;7.50;90.60;;;;;;5011123;28;20025;-72
2022/02/13 03:50:56;;;;;;;11.23;6.50;;;7.50;90.90;;;;;;5011322;28;20058;-72
2022/02/13 03:53:22;;;;;;;11.00;6.50;;;7.50;91.10;;;;;;5007565;28;20042;-72
2022/02/13 03:55:48;;;;;;;12.43;6.70;;;7.50;91.10;;;;;;5008197;28;20029;-72
2022/02/13 03:58:13;;;;;;;12.57;6.57;;;7.50;91.10;;;;;;5011469;28;20090;-72
2022/02/13 04:00:39;;;;;;;11.85;6.60;;;7.40;91.20;;;;;;5010705;28;20049;-72
2022/02/13 04:03:05;;;;;;;14.15;6.50;;;7.40;91.40;;;;;;5007409;28;20117;-72
2022/02/13 04:05:31;;;;;;;12.02;6.32;;;7.40;91.30;;;;;;4993502;28;20034;-72
2022/02/13 04:07:56;;;;;;;13.73;6.00;;;7.40;91.30;;;;;;5011394;28;20056;-71
2022/02/13 04:10:22;;;;;;;10.93;5.97;;;7.30;91.30;;;;;;5010853;28;20041;-72
2022/02/13 04:12:48;;;;;;;13.38;6.35;;;7.30;91.50;;;;;;5012301;28;20033;-72
2022/02/13 04:15:14;;;;;;;14.23;7.05;;;7.30;90.80;;;;;;5009708;28;20116;-72
2022/02/13 04:17:40;;;;;;;13.05;6.32;;;7.30;91.10;;;;;;5007061;28;20026;-71
2022/02/13 04:20:06;;;;;;;12.05;7.10;;;7.20;91.20;;;;;;5010955;28;20036;-71
2022/02/13 04:22:32;;;;;;;11.40;6.88;;;7.20;91.10;;;;;;5011145;28;20057;-71
2022/02/13 04:24:58;;;;;;;12.52;6.95;;;7.10;91.20;;;;;;5010982;28;20058;-71
2022/02/13 04:27:23;;;;;;;10.85;6.40;;;7.10;91.30;;;;;;5011177;28;20025;-71
2022/02/13 04:29:49;;;;;;;14.30;6.85;;;7.10;91.30;;;;;;5010850;28;20053;-72
2022/02/13 04:32:15;;;;;;;13.48;7.15;;;7.10;91.50;;;;;;5006918;28;20044;-72
2022/02/13 04:34:41;;;;;;;11.75;6.50;;;7.00;91.80;;;;;;5010236;28;20507;-72
2022/02/13 04:37:07;;;;;;;11.40;6.35;;;7.00;92.60;;;;;;5010981;28;20132;-72
2022/02/13 04:39:32;;;;;;;13.27;6.30;;;6.90;92.40;;;;;;5007805;28;20108;-71
2022/02/13 04:41:58;;;;;;;13.10;6.15;;;6.90;93.00;;;;;;5008395;28;20076;-71
2022/02/13 04:44:24;;;;;;;11.27;6.57;;;6.90;93.20;;;;;;5011012;28;20022;-71
2022/02/13 04:46:50;;;;;;;11.13;6.60;;;6.90;93.30;;;;;;5009550;28;20033;-72
2022/02/13 04:49:15;;;;;;;12.38;6.53;;;6.90;93.50;;;;;;5020520;28;20029;-71
2022/02/13 04:51:41;;;;;;;10.68;6.00;;;6.90;93.60;;;;;;5011283;28;20038;-72
2022/02/13 04:54:07;;;;;;;11.20;5.90;;;6.90;93.60;;;;;;4991326;28;20037;-71
2022/02/13 04:56:33;;;;;;;15.52;6.03;;;7.00;93.50;;;;;;5010281;28;20029;-72
2022/02/13 04:58:58;;;;;;;10.80;6.10;;;7.00;93.50;;;;;;5006333;28;20416;-72
2022/02/13 05:01:24;;;;;;;13.05;6.18;;;7.00;93.50;;;;;;5009600;28;20038;-72
2022/02/13 05:03:50;;;;;;;12.18;6.03;;;6.90;93.60;;;;;;5007295;28;20074;-72
2022/02/13 05:06:16;;;;;;;9.85;5.70;;;7.00;93.60;;;;;;5010139;28;20038;-72
2022/02/13 05:08:41;;;;;;;11.23;5.70;;;6.90;93.90;;;;;;5010376;28;20392;-72
2022/02/13 05:11:07;;;;;;;9.05;5.35;;;7.00;94.10;;;;;;5009478;28;20420;-72
2022/02/13 05:13:33;;;;;;;13.13;5.78;;;7.00;94.20;;;;;;5008161;28;20022;-72
2022/02/13 05:15:58;;;;;;;10.18;5.53;;;7.00;94.40;;;;;;5007289;28;20038;-72
2022/02/13 05:18:24;;;;;;;12.07;5.45;;;7.00;94.50;;;;;;5010843;28;20052;-72
2022/02/13 05:20:50;;;;;;;11.10;6.00;;;7.00;94.60;;;;;;5009736;28;20030;-72
2022/02/13 05:23:16;;;;;;;11.98;5.53;;;7.10;94.60;;;;;;5009456;28;20034;-72
2022/02/13 05:25:41;;;;;;;10.43;5.60;;;7.10;94.30;;;;;;5007911;28;20029;-72
2022/02/13 05:28:07;;;;;;;11.10;5.70;;;7.20;94.10;;;;;;5007971;28;20392;-72
2022/02/13 05:30:33;;;;;;;8.98;5.40;;;7.20;94.00;;;;;;5008058;28;20053;-72
2022/02/13 05:32:58;;;;;;;10.95;5.47;;;7.20;93.40;;;;;;5005722;28;20072;-72
2022/02/13 05:35:25;;;;;;;10.57;5.57;;;7.10;93.70;;;;;;5009637;28;20488;-72
2022/02/13 05:37:51;;;;;;;10.13;5.75;;;7.10;93.70;;;;;;5005775;28;20038;-72
2022/02/13 05:40:17;;;;;;;9.68;5.32;;;7.10;93.70;;;;;;5009239;28;20416;-72
2022/02/13 05:42:43;;;;;;;11.05;6.15;;;7.10;93.60;;;;;;5010504;28;20033;-72
2022/02/13 05:45:09;;;;;;;9.82;5.55;;;7.10;93.40;;;;;;5009280;28;20038;-72
2022/02/13 05:47:35;;;;;;;10.68;6.13;;;7.10;93.40;;;;;;5004894;28;20081;-71
2022/02/13 05:50:01;;;;;;;10.57;5.18;;;7.00;93.40;;;;;;5004727;28;20041;-71
2022/02/13 05:52:27;;;;;;;9.40;5.38;;;7.00;93.50;;;;;;5009289;28;20117;-71
2022/02/13 05:54:53;;;;;;;11.30;5.50;;;7.00;93.70;;;;;;5010396;28;20026;-71
2022/02/13 05:57:18;;;;;;;10.10;5.97;;;7.00;93.60;;;;;;5008803;28;20046;-72
2022/02/13 05:59:44;;;;;;;10.80;5.57;;;7.00;93.50;;;;;;5006415;28;20116;-71
2022/02/13 06:02:10;;;;;;;9.98;5.70;;;7.00;93.40;;;;;;5011599;28;20480;-71
2022/02/13 06:04:36;;;;;;;8.07;5.05;;;7.00;93.40;;;;;;5009183;28;20018;-71
2022/02/13 06:07:01;;;;;;;10.80;5.15;;;6.90;93.40;;;;;;5009465;28;20113;-72
2022/02/13 06:09:27;;;;;;;11.43;5.30;;;7.00;93.20;;;;;;5005820;28;20084;-72
2022/02/13 06:11:53;;;;;;;11.43;6.35;;;6.90;93.30;;;;;;5009117;28;20030;-72
2022/02/13 06:14:20;;;;;;;9.70;5.55;;;6.90;93.30;;;;;;5009088;28;20055;-72
2022/02/13 06:16:46;;;;;;;10.00;5.25;;;6.90;93.20;;;;;;5009335;28;20088;-71
2022/02/13 06:19:11;;;;;;;11.82;5.47;;;6.90;93.10;;;;;;5009612;28;20057;-72
2022/02/13 06:21:37;;;;;;;10.57;4.85;;;6.90;92.80;;;;;;5005617;28;20119;-72
2022/02/13 06:24:03;;;;;;;10.40;5.53;;;6.90;92.90;;;;;;5008411;28;20104;-72
2022/02/13 06:26:33;;;;;;;10.25;5.75;;;6.80;92.90;;;;;;5009526;28;20026;-72
2022/02/13 06:28:59;;;;;;;9.98;4.78;;;6.80;92.90;;;;;;5005090;28;20077;-72
2022/02/13 06:31:25;;;;;;;8.52;5.10;;;6.80;93.10;;;;;;5008870;28;20038;-72
2022/02/13 06:33:50;;;;;;;9.50;4.82;;;6.70;93.00;;;;;;5009595;28;20476;-71
2022/02/13 06:36:16;;;;;;;11.38;5.88;;;6.70;93.00;;;;;;5008717;28;20041;-71
2022/02/13 06:38:42;;;;;;;7.57;4.95;;;6.60;93.10;;;;;;5008973;28;20022;-72
2022/02/13 06:41:08;;;;;;;9.13;5.47;;;6.60;93.10;;;;;;5008243;28;20084;-72
2022/02/13 06:43:33;;;;;;;13.80;5.43;;;6.50;93.10;;;;;;5009076;28;20040;-72
2022/02/13 06:45:59;;;;;;;8.90;4.55;;;6.50;93.30;;;;;;5007597;28;20463;-72
2022/02/13 06:48:29;;;;;;;12.43;5.20;;;6.40;93.30;;;;;;5008514;28;20033;-72
2022/02/13 06:50:55;;;;;;;9.25;5.00;;;6.30;93.30;;;;;;5008701;28;20065;-71
2022/02/13 06:53:22;;;;;;;8.75;5.05;;;6.20;93.60;;;;;;5004465;28;20025;-71
2022/02/13 06:55:49;;;;;;;9.60;5.43;;;6.30;93.90;;;;;;4998105;28;20041;-71
2022/02/13 06:58:14;;;;;;;10.05;4.95;;;6.30;93.70;;;;;;4991241;28;20092;-71
2022/02/13 07:00:40;;;;;;;10.07;4.88;;;6.30;93.60;;;;;;5008792;28;20037;-71
2022/02/13 07:03:10;;;;;;;7.85;4.60;;;6.40;93.40;;;;;;5007988;28;20030;-70
2022/02/13 07:05:36;;;;;;;11.23;4.60;;;6.40;93.10;;;;;;5007659;28;20485;-74
2022/02/13 07:08:01;;;;;;;8.73;4.80;;;6.40;92.80;;;;;;5008049;28;20026;-70
2022/02/13 07:10:27;;;;;;;7.50;5.05;;;6.40;92.60;;;;;;5007916;28;20045;-70
2022/02/13 07:12:53;;;;;;;9.25;4.65;;;6.40;92.40;;;;;;5007954;28;20404;-71
2022/02/13 07:15:19;;;;;;;8.70;4.68;;;6.30;92.60;;;;;;5008405;28;20034;-70
2022/02/13 07:17:45;;;;;;;9.57;4.57;;;6.30;92.50;;;;;;5003761;28;20025;-71
2022/02/13 07:20:12;;;;;;;9.15;5.15;;;6.30;92.60;;;;;;4995151;28;20128;-70
2022/02/13 07:22:37;;;;;;;7.80;5.10;;;6.20;92.70;;;;;;5006374;28;20034;-70
2022/02/13 07:25:06;;;;;;;9.25;4.85;;;6.20;92.90;;;;;;5009454;28;20469;-71
2022/02/13 07:27:33;;;;;;;9.55;4.97;;;6.20;92.80;;;;;;5010986;28;20103;-71
2022/02/13 07:29:59;;;;;;;8.05;4.50;;;6.20;93.00;;;;;;5011024;28;20505;-71
2022/02/13 07:32:25;;;;;;;10.82;5.35;;;6.20;93.00;;;;;;5007540;28;20046;-71
2022/02/13 07:34:51;;;;;;;9.95;5.32;;;6.20;92.70;;;;;;5000354;28;20053;-71
2022/02/13 07:37:17;;;;;;;8.85;4.90;;;6.20;92.80;;;;;;5010124;28;20503;-72
2022/02/13 07:39:43;;;;;;;8.68;4.70;;;6.20;92.60;;;;;;5009480;28;20025;-72
2022/02/13 07:42:10;;;;;;;10.13;5.18;;;6.40;92.30;;;;;;5007492;28;20100;-72
2022/02/13 07:44:37;;;;;;;11.05;5.18;;;6.40;91.90;;;;;;5011066;28;20053;-71
2022/02/13 07:47:04;;;;;;;8.90;5.63;;;6.50;91.40;;;;;;5005212;28;20034;-71
2022/02/13 07:49:29;;;;;;;11.20;5.30;;;6.60;91.00;;;;;;5011350;28;20500;-71
2022/02/13 07:51:56;;;;;;;8.88;5.05;;;6.70;90.50;;;;;;5011075;28;20069;-71
2022/02/13 07:54:22;;;;;;;9.57;5.18;;;6.80;90.00;;;;;;5010869;28;20026;-71
2022/02/13 07:56:48;;;;;;;9.20;5.25;;;7.00;88.90;;;;;;5008073;28;20033;-71
2022/02/13 07:59:14;;;;;;;8.82;4.93;;;7.30;86.50;;;;;;5011624;28;20033;-71
2022/02/13 08:01:40;;;;;;;8.00;4.78;;;8.10;81.60;;;;;;5008086;28;20038;-71
2022/02/13 08:04:05;;;;;;;7.78;5.10;;;9.40;72.10;;;;;;5009342;28;20141;-71
2022/02/13 08:06:31;;;;;;;7.68;4.75;;;10.70;64.00;;;;;;5010660;28;20069;-71
2022/02/13 08:08:57;;;;;;;7.93;4.82;;;11.70;58.40;;;;;;5010713;28;20022;-71
2022/02/13 08:11:22;;;;;;;8.25;4.95;;;12.60;54.40;;;;;;5010288;28;20485;-72
2022/02/13 08:13:49;;;;;;;9.98;4.93;;;13.50;51.20;;;;;;5008255;28;20058;-71
2022/02/13 08:16:15;;;;;;;8.57;5.40;;;14.30;47.90;;;;;;5010121;28;20037;-72
2022/02/13 08:18:41;;;;;;;9.48;5.18;;;14.70;46.40;;;;;;5011538;28;20026;-74
2022/02/13 08:21:08;;;;;;;7.75;5.10;;;14.50;46.20;;;;;;5010609;28;20033;-72
2022/02/13 08:23:34;;;;;;;9.88;5.65;;;14.20;46.90;;;;;;5007043;28;20018;-72
2022/02/13 08:26:00;;;;;;;9.85;5.60;;;13.80;47.90;;;;;;5006829;28;20469;-72
2022/02/13 08:28:26;;;;;;;8.30;5.47;;;13.60;48.00;;;;;;5009851;28;20555;-72
2022/02/13 08:30:52;;;;;;;10.82;5.90;;;13.30;49.20;;;;;;5010719;28;20070;-73
2022/02/13 08:33:18;;;;;;;9.50;5.60;;;13.00;50.10;;;;;;5010362;28;20037;-73
2022/02/13 08:35:44;;;;;;;10.63;5.82;;;12.80;51.00;;;;;;5010293;28;20408;-72
2022/02/13 08:38:10;;;;;;;10.63;6.10;;;13.00;51.00;;;;;;5009936;28;20125;-72
2022/02/13 08:40:36;;;;;;;8.10;5.70;;;13.00;50.40;;;;;;5010271;28;20101;-72
2022/02/13 08:43:02;;;;;;;10.85;6.25;;;12.80;51.30;;;;;;5008696;28;20094;-72
2022/02/13 08:45:30;;;;;;;9.52;5.65;;;12.70;51.90;;;;;;5011162;28;20037;-72
2022/02/13 08:47:56;;;;;;;9.13;6.35;;;12.90;51.80;;;;;;5006198;28;20096;-72
2022/02/13 08:50:23;;;;;;;9.45;6.03;;;13.50;49.90;;;;;;5000950;28;20150;-71
2022/02/13 08:52:49;;;;;;;9.07;6.15;;;14.00;48.20;;;;;;4990788;28;20097;-72
2022/02/13 08:55:15;;;;;;;10.00;6.53;;;13.80;48.70;;;;;;4991348;28;20030;-72
2022/02/13 08:57:42;;;;;;;11.10;6.68;;;13.30;50.00;;;;;;4991324;28;20131;-72
2022/02/13 09:00:11;;;;;;;10.10;6.38;;;12.90;51.50;;;;;;4990439;28;20052;-72
2022/02/13 09:02:37;;;;;;;10.63;6.18;;;12.40;53.40;;;;;;4989494;28;20100;-72
2022/02/13 09:05:04;;;;;;;11.10;6.22;;;12.00;55.70;;;;;;4990665;28;20035;-72
2022/02/13 09:07:31;;;;;;;12.32;6.30;;;11.70;57.20;;;;;;4989466;28;20033;-71
2022/02/13 09:09:57;;;;;;;9.93;6.65;;;11.40;58.90;;;;;;4990447;28;20030;-72
2022/02/13 09:12:23;;;;;;;9.98;6.38;;;11.40;60.00;;;;;;4990034;28;20054;-72
2022/02/13 09:14:50;;;;;;;9.45;6.65;;;11.10;62.00;;;;;;4989506;28;20421;-71
2022/02/13 09:17:16;;;;;;;11.43;6.25;;;11.20;62.80;;;;;;4989659;28;20041;-71
2022/02/13 09:19:41;;;;;;;11.00;7.10;;;11.40;62.70;;;;;;4990572;28;20026;-71
2022/02/13 09:22:08;;;;;;;12.45;8.30;;;11.40;63.20;;;;;;4989406;28;20240;-72
2022/02/13 09:24:34;;;;;;;12.00;6.95;;;11.40;64.00;;;;;;4990537;28;20113;-72
2022/02/13 09:27:01;;;;;;;11.48;7.03;;;11.60;63.80;;;;;;4990397;28;20073;-72
2022/02/13 09:29:26;;;;;;;10.60;6.50;;;11.90;62.90;;;;;;4989587;28;20080;-72
2022/02/13 09:31:53;;;;;;;11.65;6.70;;;12.40;61.00;;;;;;4988319;28;20034;-73
2022/02/13 09:34:25;;;;;;;13.63;6.53;;;12.60;59.80;;;;;;4987718;28;20093;-72
2022/02/13 09:36:53;;;;;;;10.82;7.00;;;12.10;62.30;;;;;;4989634;28;20042;-72
2022/02/13 09:39:19;;;;;;;42.45;24.52;;;11.70;65.30;;;;;;4989707;28;20065;-71
2022/02/13 09:41:45;;;;;;;12.48;7.93;;;11.60;66.60;;;;;;4989290;28;20650;-72
2022/02/13 09:44:11;;;;;;;12.48;7.28;;;11.80;66.30;;;;;;4989498;28;20049;-72
2022/02/13 09:46:37;;;;;;;11.30;7.00;;;12.10;65.70;;;;;;4989219;28;20737;-72
2022/02/13 09:49:07;;;;;;;12.68;6.70;;;12.40;64.60;;;;;;4990242;28;20026;-72
2022/02/13 09:51:34;;;;;;;15.02;6.35;;;12.70;63.50;;;;;;5008717;28;20049;-72
2022/02/13 09:54:01;;;;;;;11.70;6.97;;;13.20;61.50;;;;;;5008573;28;20014;-72
2022/02/13 09:56:27;;;;;;;11.88;6.68;;;13.30;60.40;;;;;;5009388;28;20688;-74
2022/02/13 09:58:54;;;;;;;12.50;7.10;;;13.50;60.40;;;;;;5007867;28;20105;-72
2022/02/13 10:01:32;;;;;;;12.20;6.70;;;13.50;60.90;;;;;;5005079;28;20057;-72
2022/02/13 10:03:58;;;;;;;12.65;7.43;;;13.40;61.80;;;;;;5008285;28;20507;-71
2022/02/13 10:06:25;;;;;;;12.35;7.63;;;13.80;60.40;;;;;;5010024;28;20062;-71
2022/02/13 10:08:53;;;;;;;11.77;7.50;;;13.50;62.40;;;;;;5008619;28;20042;-71
2022/02/13 10:11:24;;;;;;;17.25;8.10;;;13.10;64.70;;;;;;5005548;28;20080;-72
2022/02/13 10:13:55;;;;;;;13.50;8.05;;;12.70;67.50;;;;;;5008831;28;20109;-72
2022/02/13 10:16:26;;;;;;;14.00;6.53;;;12.50;69.90;;;;;;5008699;28;20159;-71
2022/02/13 10:19:08;;;;;;;14.10;8.02;;;12.20;72.60;;;;;;5002327;28;20033;-71
2022/02/13 10:21:38;;;;;;;12.10;7.25;;;12.30;72.70;;;;;;5009201;28;20030;-71
2022/02/13 10:24:15;;;;;;;15.73;7.65;;;12.40;71.80;;;;;;5007508;28;20040;-71
2022/02/13 10:26:41;;;;;;;11.90;7.70;;;12.50;71.50;;;;;;5008587;28;20101;-71
2022/02/13 10:29:08;;;;;;;13.40;6.97;;;12.60;71.10;;;;;;5004614;28;20031;-71
2022/02/13 10:31:35;;;;;;;11.70;6.75;;;12.90;69.90;;;;;;5007548;28;20113;-73
2022/02/13 10:34:02;;;;;;;11.73;7.65;;;13.20;67.70;;;;;;5008838;28;20513;-73
2022/02/13 10:36:28;;;;;;;11.38;6.78;;;13.70;65.40;;;;;;5009246;28;20022;-72
2022/02/13 10:38:54;;;;;;;11.80;7.03;;;13.80;64.70;;;;;;5006262;28;20252;-72
2022/02/13 10:41:35;;;;;;;11.55;6.82;;;14.00;63.50;;;;;;5008400;28;20098;-72
2022/02/13 10:44:05;;;;;;;13.40;7.68;;;14.00;63.50;;;;;;5004678;28;20018;-72
2022/02/13 10:46:49;;;;;;;11.85;7.18;;;14.20;63.10;;;;;;5004973;28;20392;-72
2022/02/13 10:49:16;;;;;;;11.95;7.43;;;14.10;63.60;;;;;;5007134;28;20034;-72
2022/02/13 10:51:43;;;;;;;12.95;7.70;;;13.90;64.90;;;;;;5006645;28;20045;-72
2022/02/13 10:54:09;;;;;;;15.57;8.20;;;13.70;66.70;;;;;;5006369;28;20149;-72
2022/02/13 10:56:37;;;;;;;12.65;8.73;;;13.60;67.20;;;;;;5003966;28;20030;-72
2022/02/13 10:59:10;;;;;;;18.27;8.82;;;13.20;69.20;;;;;;5008679;28;20033;-72
2022/02/13 11:01:37;;;;;;;15.85;9.10;;;13.20;71.50;;;;;;5012253;28;20029;-73
2022/02/13 11:04:03;;;;;;;15.20;8.90;;;12.90;72.40;;;;;;5011784;28;20030;-72
2022/02/13 11:06:35;;;;;;;14.93;8.30;;;12.60;75.30;;;;;;5012228;28;20080;-72
2022/02/13 11:09:20;;;;;;;14.15;8.18;;;12.30;78.10;;;;;;5004668;28;20041;-73
2022/02/13 11:11:48;;;;;;;13.68;8.80;;;11.90;82.60;;;;;;5005103;28;20068;-72
2022/02/13 11:14:40;;;;;;;12.15;7.80;;;11.80;84.70;;;;;;5011198;28;20030;-73
2022/02/13 11:17:07;;;;;;;11.93;7.93;;;11.80;85.30;;;;;;5010459;28;20037;-72
2022/02/13 11:19:36;;;;;;;13.50;8.35;;;11.90;85.00;;;;;;5010420;28;20038;-72
2022/02/13 11:22:06;;;;;;;13.40;8.15;;;12.00;84.70;;;;;;5011065;28;20026;-72
2022/02/13 11:24:36;;;;;;;13.35;8.60;;;12.10;83.70;;;;;;5006735;28;20113;-72
2022/02/13 11:27:04;;;;;;;13.30;8.05;;;12.30;82.90;;;;;;5011091;28;20022;-73
2022/02/13 11:29:53;;;;;;;18.15;9.93;;;12.40;82.30;;;;;;5009420;28;20026;-72
2022/02/13 11:32:33;;;;;;;15.07;7.95;;;12.50;81.40;;;;;;5011338;28;20105;-71
2022/02/13 11:34:59;;;;;;;14.65;7.90;;;13.10;77.20;;;;;;5006023;28;20034;-70
2022/02/13 11:37:42;;;;;;;12.55;7.18;;;13.10;76.60;;;;;;5010916;28;20029;-70
2022/02/13 11:40:34;;;;;;;11.98;8.00;;;13.00;77.10;;;;;;5011337;28;20060;-70
2022/02/13 11:43:07;;;;;;;14.07;8.90;;;12.90;78.40;;;;;;5008322;28;20485;-71
2022/02/13 11:45:43;;;;;;;14.20;8.75;;;13.00;77.20;;;;;;5007868;28;20494;-71
2022/02/13 11:48:44;;;;;;;14.23;8.35;;;13.10;76.90;;;;;;5010936;28;20034;-71
2022/02/13 11:51:13;;;;;;;16.77;9.02;;;13.50;74.80;;;;;;4930605;29;20055;-72
2022/02/13 11:53:42;;;;;;;14.82;8.60;;;14.20;70.30;;;;;;4930329;29;20043;-72
2022/02/13 11:56:27;;;;;;;12.70;8.57;;;14.70;67.10;;;;;;4926522;29;20515;-72
2022/02/13 11:58:55;;;;;;;12.88;8.38;;;15.10;64.60;;;;;;4927441;29;20084;-72
2022/02/13 12:01:36;;;;;;;15.23;7.75;;;15.60;61.90;;;;;;4926503;29;20119;-72
2022/02/13 12:04:05;;;;;;;15.95;9.13;;;16.10;59.00;;;;;;4918475;29;20122;-72
2022/02/13 12:06:32;;;;;;;15.23;8.45;;;16.00;59.70;;;;;;4931760;29;20038;-71
2022/02/13 12:09:02;;;;;;;19.23;9.15;;;15.30;62.20;;;;;;4928558;29;20028;-72
2022/02/13 12:11:42;;;;;;;11.85;7.93;;;15.20;64.20;;;;;;4928761;29;20447;-72
2022/02/13 12:14:15;;;;;;;14.70;8.50;;;14.90;65.40;;;;;;4924496;29;20036;-71
2022/02/13 12:16:55;;;;;;;16.30;8.82;;;14.70;67.80;;;;;;4929365;29;20063;-71
2022/02/13 12:19:28;;;;;;;13.23;8.15;;;14.30;69.50;;;;;;4927630;29;20821;-71
2022/02/13 12:22:11;;;;;;;15.40;9.32;;;14.20;71.50;;;;;;4914994;29;20195;-72
2022/02/13 12:24:38;;;;;;;17.67;8.98;;;14.10;72.70;;;;;;4951377;28;20117;-72
2022/02/13 12:27:04;;;;;;;14.20;8.60;;;14.30;71.10;;;;;;5009318;28;20084;-72
2022/02/13 12:29:31;;;;;;;20.30;8.68;;;14.30;72.10;;;;;;5010035;28;20033;-72
2022/02/13 12:32:11;;;;;;;17.48;8.38;;;14.50;70.10;;;;;;5006086;28;20497;-72
2022/02/13 12:34:54;;;;;;;20.52;10.95;;;14.40;71.30;;;;;;5007422;28;20132;-72
2022/02/13 12:37:20;;;;;;;16.27;8.88;;;14.80;69.50;;;;;;5007582;28;20526;-73
2022/02/13 12:39:50;;;;;;;16.42;9.63;;;14.60;69.90;;;;;;5011379;28;20033;-72
2022/02/13 12:42:34;;;;;;;15.27;8.70;;;14.80;69.60;;;;;;5010298;28;20543;-72
2022/02/13 12:45:08;;;;;;;16.38;9.95;;;16.40;60.00;;;;;;5010141;28;20076;-72
2022/02/13 12:47:35;;;;;;;23.25;10.40;;;16.40;60.80;;;;;;5005780;28;20037;-71